Flight Track Log - Related Links

Times and Time Zones

All times are in EDT time to prevent confusion due to time zone crossing. See the AIP5031 flight status page for this flight to view local times or setup timezone preferences in your user account.

Time Position Orientation Groundspeed Altitude Reporting Facility
EDT Latitude Longitude Course Direction KTS MPH feet Rate Location/Type
Fri 05:19:09 AM 46.9264 -114.1100 106° East 207 238 4,300  Level Salt Lake Center
Fri 05:20:09 AM 46.9050 -114.1064 173° South 149 171 6,700 2,200 Climbing Salt Lake Center
Fri 05:21:09 AM 46.9011 -114.0494 96° East 147 169 8,700 1,850 Climbing Salt Lake Center
Fri 05:22:09 AM 46.8975 -113.9786 94° East 170 196 10,400 1,700 Climbing Salt Lake Center
Fri 05:23:09 AM 46.8883 -113.9072 101° East 179 206 12,100 1,450 Climbing Salt Lake Center
Fri 05:24:00 AM 46.8225 -113.5534 106° East  Level Estimated
Fri 05:24:09 AM 46.8756 -113.8322 104° East 188 216 13,300  Level Salt Lake Center
Fri 05:25:10 AM 46.8600 -113.7494 105° East 207 238 14,300 893 Climbing Salt Lake Center
Fri 05:26:10 AM 46.8436 -113.6617 105° East 210 242 15,100 400 Climbing Salt Lake Center
Fri 05:27:10 AM 46.8239 -113.5686 107° East 239 275 15,100  Level Salt Lake Center
Fri 05:28:10 AM 46.8019 -113.4683 108° East 258 297 15,100  Level Salt Lake Center
Fri 05:29:10 AM 46.7875 -113.3642 101° East 262 302 15,100 -50 Level Salt Lake Center
Fri 05:30:10 AM 46.7647 -113.2669 109° East 263 303 15,000 50 Descending Salt Lake Center
Fri 05:31:11 AM 46.7483 -113.1653 103° East 259 298 15,200  Climbing Salt Lake Center
Fri 05:32:11 AM 46.7311 -113.0647 104° East 256 295 15,000  Descending Salt Lake Center
Fri 05:33:11 AM 46.7119 -112.9622 105° East 260 299 15,200  Climbing Salt Lake Center
Fri 05:34:11 AM 46.6978 -112.8617 102° East 256 295 15,000 -100 Descending Salt Lake Center
Fri 05:35:11 AM 46.6789 -112.7614 105° East 258 297 15,000  Level Salt Lake Center
Fri 05:36:11 AM 46.6539 -112.6631 110° East 259 298 15,000  Level Salt Lake Center
Fri 05:37:11 AM 46.6364 -112.5603 104° East 262 302 15,000 50 Level Salt Lake Center
Fri 05:38:12 AM 46.6200 -112.4586 103° East 260 299 15,100 50 Climbing Salt Lake Center
Fri 05:39:12 AM 46.6042 -112.3564 103° East 260 299 15,100 -50 Level Salt Lake Center
Fri 05:40:12 AM 46.5828 -112.2569 107° East 259 298 15,000 -100 Descending Salt Lake Center
Fri 05:41:12 AM 46.5569 -112.1617 111° Southeast 255 293 14,900  Descending Salt Lake Center
Fri 05:42:12 AM 46.5386 -112.0639 105° East 253 291 15,000 50 Climbing Salt Lake Center
Fri 05:43:12 AM 46.5242 -111.9639 102° East 254 292 15,000 50 Level Salt Lake Center
Fri 05:44:13 AM 46.5094 -111.8644 102° East 254 292 15,100 -50 Climbing Salt Lake Center
Fri 05:45:13 AM 46.4903 -111.7669 106° East 253 291 14,900 -50 Descending Salt Lake Center
Fri 05:46:13 AM 46.4681 -111.6700 108° East 253 291 15,000 100 Climbing Salt Lake Center
Fri 05:47:13 AM 46.4475 -111.5753 107° East 250 288 15,100  Climbing Salt Lake Center
Fri 05:48:13 AM 46.4256 -111.4686 107° East 250 288 15,000 -50 Descending Salt Lake Center
Fri 05:49:13 AM 46.4092 -111.3775 105° East 250 288 15,000  Level Salt Lake Center
Fri 05:50:14 AM 46.3883 -111.2803 107° East 248 285 15,000  Level Salt Lake Center
Fri 05:51:14 AM 46.3703 -111.1800 105° East 252 290 15,000 50 Level Salt Lake Center
Fri 05:52:14 AM 46.3483 -111.0831 108° East 250 288 15,100 -50 Climbing Salt Lake Center
Fri 05:53:14 AM 46.3286 -110.9839 106° East 251 289 14,900 -100 Descending Salt Lake Center
Fri 05:54:14 AM 46.3111 -110.9036 107° East 249 287 14,900 50 Level Salt Lake Center
Fri 05:55:15 AM 46.2889 -110.8061 108° East 252 290 15,000 -50 Climbing Salt Lake Center
Fri 05:56:15 AM 46.2692 -110.6939 104° East 252 290 14,800  Descending Salt Lake Center
Fri 05:57:15 AM 46.2525 -110.6144 107° East 249 287 15,000  Climbing Salt Lake Center
Fri 05:58:16 AM 46.2369 -110.5153 103° East 251 289 14,800  Descending Salt Lake Center
Fri 05:59:15 AM 46.2133 -110.4211 110° East 252 290 15,000 101 Climbing Salt Lake Center
Fri 06:00:15 AM 46.1958 -110.3222 104° East 252 290 15,000 50 Level Salt Lake Center
Fri 06:01:16 AM 46.1761 -110.2256 106° East 253 291 15,100 -50 Climbing Salt Lake Center
Fri 06:02:16 AM 46.1525 -110.1303 110° East 253 291 14,900 -100 Descending Salt Lake Center
Fri 06:03:16 AM 46.1292 -110.0381 110° East 250 288 14,900  Level Salt Lake Center
Fri 06:04:16 AM 46.1100 -109.9417 106° East 251 289 14,900 -50 Level Salt Lake Center
Fri 06:05:16 AM 46.0867 -109.8469 110° East 251 289 14,800  Descending Salt Lake Center
Fri 06:06:17 AM 46.0650 -109.7394 106° East 250 288 14,900 99 Climbing Salt Lake Center
Fri 06:07:17 AM 46.0408 -109.6389 109° East 248 285 15,000 -100 Climbing Salt Lake Center
Fri 06:08:17 AM 46.0233 -109.5464 105° East 243 280 14,700 -500 Descending Salt Lake Center
Fri 06:09:17 AM 45.9989 -109.4492 110° East 259 298 14,000 -650 Descending Salt Lake Center
Fri 06:10:17 AM 45.9864 -109.3508 100° East 254 292 13,400 -893 Descending Salt Lake Center
Fri 06:11:18 AM 45.9617 -109.2508 110° East 268 308 12,200 -1,091 Descending Salt Lake Center
Fri 06:12:18 AM 45.9361 -109.1528 111° Southeast 267 307 11,200 -1,050 Descending Salt Lake Center
Fri 06:13:18 AM 45.9089 -109.0469 110° East 267 307 10,100 -1,150 Descending Salt Lake Center
Fri 06:14:18 AM 45.8894 -108.9453 105° East 267 307 8,900 -1,250 Descending Salt Lake Center
Fri 06:15:18 AM 45.8700 -108.8422 105° East 271 312 7,600 -1,240 Descending Salt Lake Center
Fri 06:16:19 AM 45.8550 -108.7450 102° East 257 296 6,400 -992 Descending Salt Lake Center
Fri 06:17:19 AM 45.8433 -108.6522 100° East 244 281 5,600 -700 Descending Salt Lake Center
Fri 06:18:19 AM 45.8319 -108.5761 102° East 194 223 5,000 -650 Descending Salt Lake Center
Fri 06:19:19 AM 45.8231 -108.5128 101° East 167 192 4,300 -700 Descending Salt Lake Center
Fri 06:20:19 AM 45.8078 -108.5447 236° Southwest 99 114 3,600 -700 Descending Salt Lake Center
Fri 06:22:00 AM 45.8077 -108.5429 90° East  Level Estimated

Login

Don't have an account? Register now (free) for customized features, flight alerts, and more!